createdAt,value
2018-05-19T08:07:09.804Z,100769
2018-05-19T08:09:35.826Z,100762
2018-05-19T08:12:01.859Z,100780
2018-05-19T08:14:27.892Z,100788
2018-05-19T08:16:53.920Z,100795
2018-05-19T08:19:19.963Z,100776
2018-05-19T08:21:45.979Z,100794
2018-05-19T08:24:12.031Z,100782
2018-05-19T08:26:38.050Z,100786
2018-05-19T08:29:04.095Z,100792
2018-05-19T08:31:30.132Z,100810
2018-05-19T08:33:56.168Z,100787
2018-05-19T08:36:22.191Z,100806
2018-05-19T08:38:48.210Z,100790
2018-05-19T08:41:14.331Z,100792
2018-05-19T08:43:40.257Z,100788
2018-05-19T08:46:06.279Z,100789
2018-05-19T08:48:32.307Z,100795
2018-05-19T08:50:58.342Z,100799
2018-05-19T08:53:24.387Z,100797
2018-05-19T08:55:50.408Z,100801
2018-05-19T08:58:16.522Z,100791
2018-05-19T09:00:42.477Z,100784
2018-05-19T09:03:08.518Z,100794
2018-05-19T09:05:34.564Z,100812
2018-05-19T09:08:00.583Z,100802
2018-05-19T09:10:26.610Z,100805
2018-05-19T09:12:52.758Z,100846
2018-05-19T09:15:18.735Z,100805
2018-05-19T09:17:44.746Z,100800
2018-05-19T09:20:10.791Z,100807
2018-05-19T09:22:36.829Z,100810
2018-05-19T09:25:03.191Z,100813
2018-05-19T09:27:29.210Z,100810
2018-05-19T09:29:55.293Z,100863
2018-05-19T09:32:21.271Z,100864
2018-05-19T09:34:47.318Z,100855
2018-05-19T09:37:13.335Z,100820
2018-05-19T09:39:39.374Z,100808
2018-05-19T09:42:05.395Z,100813
2018-05-19T09:44:31.423Z,100812
2018-05-19T09:46:57.447Z,100804
2018-05-19T09:49:23.478Z,100804
2018-05-19T09:51:49.518Z,100814
2018-05-19T09:54:15.563Z,100817
2018-05-19T09:56:41.593Z,100804
2018-05-19T09:59:07.609Z,100802
2018-05-19T10:01:33.645Z,100802
2018-05-19T10:03:59.678Z,100803
2018-05-19T10:06:25.717Z,100810
2018-05-19T10:08:51.738Z,100809
2018-05-19T10:11:17.775Z,100813
2018-05-19T10:13:43.798Z,100815
2018-05-19T10:16:09.828Z,100828
2018-05-19T10:18:36.034Z,100815
2018-05-19T10:21:02.073Z,100817
2018-05-19T10:23:28.089Z,100809
2018-05-19T10:25:54.123Z,100805
2018-05-19T10:28:20.180Z,100804
2018-05-19T10:30:46.200Z,100809
2018-05-19T10:33:12.232Z,100807
2018-05-19T10:35:38.345Z,100807
2018-05-19T10:38:04.392Z,100805
2018-05-19T10:40:31.186Z,100806
2018-05-19T10:42:58.062Z,100814
2018-05-19T10:45:24.140Z,100807
2018-05-19T10:47:50.199Z,100809
2018-05-19T10:50:16.281Z,100809
2018-05-19T10:52:42.356Z,100798
2018-05-19T10:55:08.464Z,100806
2018-05-19T10:57:34.520Z,100806
2018-05-19T11:00:00.565Z,100822
2018-05-19T11:02:26.595Z,100818
2018-05-19T11:04:52.615Z,100806
2018-05-19T11:07:18.754Z,100811
2018-05-19T11:09:44.800Z,100805
2018-05-19T11:12:10.832Z,100808
2018-05-19T11:14:37.139Z,100803
2018-05-19T11:17:03.199Z,100803
2018-05-19T11:19:29.217Z,100801
2018-05-19T11:21:55.248Z,100815
2018-05-19T12:21:21.649Z,100805
2018-05-19T12:23:47.650Z,100800
2018-05-19T12:26:13.686Z,100788
2018-05-19T12:28:39.695Z,100789
2018-05-19T12:31:05.792Z,100798
2018-05-19T12:33:31.791Z,100790
2018-05-19T12:35:57.796Z,100787
2018-05-19T12:38:23.852Z,100784
2018-05-19T12:40:49.925Z,100780
2018-05-19T12:43:15.986Z,100778
2018-05-19T12:45:41.987Z,100777
2018-05-19T12:48:08.131Z,100777
2018-05-19T12:50:34.186Z,100771
2018-05-19T12:53:00.412Z,100781
2018-05-19T12:55:26.427Z,100772
2018-05-19T12:57:52.429Z,100773
2018-05-19T13:00:18.434Z,100768
2018-05-19T13:02:44.457Z,100769
2018-05-19T13:05:10.935Z,100769
2018-05-19T13:07:37.374Z,100767
2018-05-19T13:10:03.704Z,100771
2018-05-19T13:12:29.828Z,100773
2018-05-19T13:14:55.854Z,100768
2018-05-19T13:17:21.850Z,100766
2018-05-19T13:19:47.866Z,100769
2018-05-19T13:22:13.857Z,100761
2018-05-19T13:24:39.879Z,100764
2018-05-19T13:27:05.882Z,100754
2018-05-19T13:29:32.006Z,100752
2018-05-19T13:31:58.222Z,100758
2018-05-19T13:34:24.282Z,100750
2018-05-19T13:36:50.318Z,100754
2018-05-19T13:39:16.370Z,100749
2018-05-19T13:41:42.366Z,100748
2018-05-19T13:44:08.450Z,100741
2018-05-19T13:46:34.471Z,100744
2018-05-19T13:49:00.501Z,100742
2018-05-19T13:51:26.496Z,100746
2018-05-19T13:53:52.502Z,100740
2018-05-19T13:56:18.555Z,100734
2018-05-19T13:58:44.576Z,100722
2018-05-19T14:01:10.575Z,100730
2018-05-19T14:03:36.613Z,100733
2018-05-19T14:06:02.615Z,100725
2018-05-19T14:08:28.626Z,100726
2018-05-19T14:10:54.667Z,100725
2018-05-19T14:13:20.727Z,100726
2018-05-19T14:15:46.828Z,100729
2018-05-19T14:18:12.819Z,100725
2018-05-19T14:20:38.839Z,100726
2018-05-19T14:23:04.866Z,100722
2018-05-19T14:25:30.886Z,100722
2018-05-19T14:27:56.883Z,100716
2018-05-19T14:30:22.890Z,100712
2018-05-19T14:32:48.899Z,100709
2018-05-19T14:35:14.961Z,100714
2018-05-19T14:37:40.967Z,100713
2018-05-19T14:40:06.983Z,100716
2018-05-19T14:42:32.983Z,100717
2018-05-19T14:44:58.998Z,100715
2018-05-19T14:47:25.002Z,100710
2018-05-19T14:49:51.016Z,100717
2018-05-19T14:52:17.007Z,100720
2018-05-19T14:54:43.126Z,100720
2018-05-19T14:57:09.126Z,100720
2018-05-19T14:59:35.139Z,100724
2018-05-19T15:02:01.179Z,100713
2018-05-19T15:04:27.268Z,100715
2018-05-19T15:06:53.214Z,100706
2018-05-19T15:09:19.202Z,100708
2018-05-19T15:11:45.206Z,100712
2018-05-19T15:14:11.223Z,100712
2018-05-19T15:16:37.238Z,100706
2018-05-19T15:19:03.290Z,100704
2018-05-19T15:21:29.282Z,100700
2018-05-19T15:23:55.280Z,100706
2018-05-19T15:26:21.290Z,100699
2018-05-19T15:28:47.288Z,100703
2018-05-19T15:31:13.331Z,100701
2018-05-19T15:33:39.330Z,100702
2018-05-19T15:36:05.342Z,100697
2018-05-19T15:38:31.486Z,100702
2018-05-19T15:40:57.580Z,100705
2018-05-19T15:43:23.570Z,100702
2018-05-19T15:45:49.592Z,100707
2018-05-19T15:48:15.616Z,100702
2018-05-19T15:50:41.613Z,100694
2018-05-19T15:53:07.739Z,100704
2018-05-19T15:55:33.808Z,100701
2018-05-19T15:58:00.270Z,100695
2018-05-19T16:00:26.354Z,100689
2018-05-19T16:02:52.654Z,100681
2018-05-19T16:05:18.647Z,100680
2018-05-19T16:07:44.680Z,100680
2018-05-19T16:10:10.670Z,100679
2018-05-19T16:12:36.733Z,100677
2018-05-19T16:15:02.736Z,100683
2018-05-19T16:17:28.835Z,100680
2018-05-19T16:19:54.959Z,100680
2018-05-19T16:22:20.981Z,100675
2018-05-19T16:24:46.986Z,100678
2018-05-19T16:27:13.048Z,100675
2018-05-19T16:29:39.031Z,100679
2018-05-19T16:32:05.051Z,100666
2018-05-19T16:34:31.043Z,100665
2018-05-19T16:36:57.067Z,100666
2018-05-19T16:39:23.168Z,100662
2018-05-19T16:41:49.109Z,100666
2018-05-19T16:44:15.114Z,100659
2018-05-19T16:46:41.205Z,100662
2018-05-19T16:49:07.240Z,100663
2018-05-19T16:51:33.239Z,100666
2018-05-19T16:53:59.249Z,100662
2018-05-19T16:56:25.258Z,100667
2018-05-19T16:58:51.288Z,100664
2018-05-19T17:01:17.290Z,100670
2018-05-19T17:03:43.321Z,100668
2018-05-19T17:06:09.381Z,100681
2018-05-19T17:08:35.414Z,100676
2018-05-19T17:11:01.426Z,100674
2018-05-19T17:13:27.446Z,100676
2018-05-19T17:15:53.437Z,100677
2018-05-19T17:18:19.453Z,100688
2018-05-19T17:20:45.450Z,100687
2018-05-19T17:23:11.459Z,100688
2018-05-19T17:25:37.447Z,100688
2018-05-19T17:28:03.468Z,100684
2018-05-19T17:30:29.467Z,100682
2018-05-19T17:32:55.494Z,100683
2018-05-19T17:35:21.486Z,100686
2018-05-19T17:37:47.502Z,100693
2018-05-19T17:40:13.502Z,100692
2018-05-19T17:42:39.518Z,100693
2018-05-19T17:45:05.524Z,100684
2018-05-19T17:47:31.550Z,100681
2018-05-19T17:49:57.542Z,100690
2018-05-19T17:52:23.550Z,100694
2018-05-19T17:54:49.590Z,100698
2018-05-19T17:57:15.591Z,100695
2018-05-19T17:59:41.614Z,100696
2018-05-19T18:02:07.605Z,100694
2018-05-19T18:04:33.620Z,100698
2018-05-19T18:06:59.614Z,100704
2018-05-19T18:09:25.645Z,100703
2018-05-19T18:11:51.638Z,100707
2018-05-19T18:14:17.653Z,100717
2018-05-19T18:16:43.677Z,100718
2018-05-19T18:19:09.698Z,100715
2018-05-19T18:21:35.697Z,100721
2018-05-19T18:24:01.836Z,100719
2018-05-19T18:26:27.898Z,100721
2018-05-19T18:28:53.930Z,100723
2018-05-19T18:31:20.008Z,100717
2018-05-19T18:33:46.255Z,100722
2018-05-19T18:36:12.544Z,100723
2018-05-19T18:38:38.814Z,100720
2018-05-19T18:41:04.861Z,100723
2018-05-19T18:43:31.373Z,100730
2018-05-19T18:45:57.606Z,100729
2018-05-19T18:48:23.643Z,100732
2018-05-19T18:50:49.668Z,100736
2018-05-19T18:53:15.679Z,100732
2018-05-19T18:55:41.774Z,100737
2018-05-19T18:58:07.802Z,100736
2018-05-19T19:00:33.829Z,100735
2018-05-19T19:03:00.278Z,100743
2018-05-19T19:05:26.391Z,100746
2018-05-19T19:07:52.411Z,100760
2018-05-19T19:10:18.434Z,100747
2018-05-19T19:12:44.496Z,100758
2018-05-19T19:15:10.576Z,100765
2018-05-19T19:17:36.639Z,100770
2018-05-19T19:20:02.632Z,100768
2018-05-19T19:22:28.646Z,100771
2018-05-19T19:24:54.713Z,100778
2018-05-19T19:27:20.803Z,100779
2018-05-19T19:29:46.841Z,100787
2018-05-19T19:32:12.852Z,100788
2018-05-19T19:34:38.994Z,100797
2018-05-19T19:37:05.094Z,100797
2018-05-19T19:39:31.137Z,100794
2018-05-19T19:41:57.176Z,100803
2018-05-19T19:44:23.360Z,100813
2018-05-19T19:46:49.400Z,100810
2018-05-19T19:49:15.491Z,100809
2018-05-19T19:51:41.636Z,100814
2018-05-19T19:54:08.106Z,100818
2018-05-19T19:56:34.150Z,100818
2018-05-19T19:59:00.149Z,100818
2018-05-19T20:01:26.151Z,100823
2018-05-19T20:03:52.173Z,100822
2018-05-19T20:06:18.186Z,100819
2018-05-19T20:08:44.219Z,100821
2018-05-19T20:11:10.218Z,100824
